Time;durP1;ratioP1;P1;durP2;ratioP2;P2;SDS_P1;SDS_P2;PMS_P1;PMS_P2;Temp;Humidity;BMP_temperature;BMP_pressure;BME280_temperature;BME280_humidity;BME280_pressure;Samples;Min_cycle;Max_cycle;Signal;HPM_P1;HPM_P2
2022/10/30 00:00:42;;;;;;;12.13;4.68;;;;;;;13.18;100.00;96301.72;5029360;28;24424;-68
2022/10/30 00:03:12;;;;;;;15.80;4.38;;;;;;;13.12;100.00;96302.09;5026392;28;24794;-68
2022/10/30 00:05:41;;;;;;;11.15;4.03;;;;;;;13.18;100.00;96301.72;5029520;28;24493;-69
2022/10/30 00:08:09;;;;;;;16.37;4.83;;;;;;;13.13;100.00;96293.41;5024387;28;24452;-68
2022/10/30 00:10:36;;;;;;;13.23;4.55;;;;;;;13.16;100.00;96297.53;5025616;28;24448;-68
2022/10/30 00:13:02;;;;;;;8.60;4.60;;;;;;;13.18;100.00;96293.09;5027152;28;24447;-68
2022/10/30 00:15:29;;;;;;;9.93;4.38;;;;;;;13.20;100.00;96292.06;5023886;28;24439;-69
2022/10/30 00:17:55;;;;;;;10.67;4.33;;;;;;;13.18;100.00;96293.09;5027005;28;24463;-68
2022/10/30 00:20:23;;;;;;;11.07;4.25;;;;;;;13.21;100.00;96291.13;5025135;28;24432;-68
2022/10/30 00:22:50;;;;;;;15.60;4.60;;;;;;;13.20;100.00;96294.66;5026912;28;24518;-68
2022/10/30 00:25:16;;;;;;;10.65;4.53;;;;;;;13.10;100.00;96291.00;5025569;28;24437;-68
2022/10/30 00:27:43;;;;;;;10.88;4.15;;;;;;;13.04;100.00;96292.19;5020438;28;24443;-69
2022/10/30 00:30:11;;;;;;;8.55;4.25;;;;;;;13.02;100.00;96288.06;5026669;28;24444;-68
2022/10/30 00:32:37;;;;;;;8.97;4.33;;;;;;;13.05;100.00;96290.44;5020107;28;24438;-69
2022/10/30 00:35:05;;;;;;;16.08;4.85;;;;;;;13.01;100.00;96295.00;5029700;28;24981;-68
2022/10/30 00:37:32;;;;;;;11.10;4.50;;;;;;;13.00;100.00;96295.94;5027454;28;24435;-68
2022/10/30 00:39:59;;;;;;;19.40;4.90;;;;;;;12.90;100.00;96300.03;5027860;28;24436;-68
2022/10/30 00:42:30;;;;;;;12.43;4.63;;;;;;;12.87;100.00;96302.00;5026150;28;25004;-69
2022/10/30 00:44:57;;;;;;;18.65;5.20;;;;;;;12.59;100.00;96299.38;5028499;28;24446;-68
2022/10/30 00:47:26;;;;;;;11.48;4.95;;;;;;;12.50;100.00;96294.78;5024328;28;24447;-68
2022/10/30 00:49:58;;;;;;;11.85;4.53;;;;;;;12.41;100.00;96305.72;5013982;28;24936;-68
2022/10/30 00:52:28;;;;;;;17.02;4.70;;;;;;;12.38;100.00;96289.47;5027811;28;24448;-68
2022/10/30 00:54:57;;;;;;;10.63;3.75;;;;;;;12.50;100.00;96286.97;5028382;28;25333;-70
2022/10/30 00:57:25;;;;;;;12.15;3.90;;;;;;;12.57;100.00;96288.28;5025213;28;24438;-68
2022/10/30 00:59:52;;;;;;;10.90;4.10;;;;;;;12.65;100.00;96290.38;5029687;28;24447;-68
2022/10/30 01:02:20;;;;;;;9.97;4.20;;;;;;;12.69;100.00;96288.44;5021238;28;24801;-68
2022/10/30 01:04:47;;;;;;;10.25;4.28;;;;;;;12.68;100.00;96282.41;5029589;28;24428;-69
2022/10/30 01:07:16;;;;;;;13.23;4.45;;;;;;;12.66;100.00;96280.81;5027702;28;24440;-68
2022/10/30 01:09:43;;;;;;;15.73;4.05;;;;;;;12.53;100.00;96279.00;5029356;28;24435;-69
2022/10/30 01:12:11;;;;;;;7.70;3.60;;;;;;;12.56;100.00;96278.78;5023550;28;24545;-68
2022/10/30 01:14:42;;;;;;;12.50;4.55;;;;;;;12.57;100.00;96279.66;5029972;28;24424;-70
2022/10/30 01:17:33;;;;;;;9.00;4.13;;;;;;;12.46;100.00;96284.66;5023025;28;24438;-71
2022/10/30 01:20:13;;;;;;;11.82;3.92;;;;;;;12.42;100.00;96283.16;5019985;28;24476;-70
2022/10/30 01:22:52;;;;;;;9.68;3.70;;;;;;;12.57;100.00;96283.06;5020224;28;24439;-70
2022/10/30 01:25:36;;;;;;;9.98;3.65;;;;;;;12.56;100.00;96281.38;5013679;28;24443;-70
2022/10/30 01:28:20;;;;;;;11.30;4.15;;;;;;;12.50;100.00;96280.94;5027280;28;24987;-70
2022/10/30 01:30:58;;;;;;;12.32;4.05;;;;;;;12.52;100.00;96277.31;5024911;28;24458;-71
2022/10/30 01:33:36;;;;;;;11.40;4.28;;;;;;;12.63;100.00;96275.81;5029422;28;24439;-68
2022/10/30 01:36:13;;;;;;;12.60;4.25;;;;;;;12.64;100.00;96275.69;5020742;28;25008;-68
2022/10/30 01:38:45;;;;;;;7.88;4.30;;;;;;;12.54;100.00;96270.28;5027245;28;24444;-68
2022/10/30 01:41:11;;;;;;;9.30;3.75;;;;;;;12.39;100.00;96270.41;5025288;28;24469;-67
2022/10/30 01:43:41;;;;;;;10.35;3.92;;;;;;;12.38;100.00;96266.09;5029163;28;24995;-67
2022/10/30 01:46:26;;;;;;;10.85;4.00;;;;;;;12.23;100.00;96260.09;5020912;28;24451;-68
2022/10/30 01:49:04;;;;;;;11.45;4.40;;;;;;;12.10;100.00;96260.84;5027190;28;24784;-68
2022/10/30 01:51:47;;;;;;;9.88;4.53;;;;;;;12.17;100.00;96263.09;5025024;28;24539;-67
2022/10/30 01:54:23;;;;;;;12.40;4.65;;;;;;;12.08;100.00;96251.47;5028488;28;24523;-67
2022/10/30 01:56:59;;;;;;;24.05;4.75;;;;;;;12.07;100.00;96255.03;5028233;28;25035;-68
2022/10/30 01:59:33;;;;;;;10.02;4.07;;;;;;;12.17;100.00;96253.53;5026393;28;24975;-67
2022/10/30 02:01:59;;;;;;;22.27;5.03;;;;;;;12.08;100.00;96257.50;5020603;28;24431;-68
2022/10/30 02:04:26;;;;;;;9.13;4.32;;;;;;;12.06;100.00;96263.75;5033423;28;24443;-68
2022/10/30 02:06:53;;;;;;;9.25;4.20;;;;;;;12.15;100.00;96252.78;5020461;28;24443;-67
2022/10/30 02:09:20;;;;;;;11.93;4.75;;;;;;;12.26;100.00;96259.91;5032387;28;24447;-67
2022/10/30 02:11:48;;;;;;;9.57;4.10;;;;;;;12.20;100.00;96249.91;5028644;28;24455;-68
2022/10/30 02:14:18;;;;;;;11.10;4.30;;;;;;;12.10;100.00;96253.06;5025660;28;24969;-69
2022/10/30 02:16:51;;;;;;;10.85;4.03;;;;;;;12.05;100.00;96255.13;5024472;28;24790;-68
2022/10/30 02:19:18;;;;;;;7.97;3.78;;;;;;;12.04;100.00;96253.44;5030457;28;24440;-67
2022/10/30 02:21:46;;;;;;;8.98;4.25;;;;;;;12.07;100.00;96250.66;5029281;28;24439;-68
2022/10/30 02:24:13;;;;;;;7.57;3.97;;;;;;;12.08;100.00;96247.13;5025344;28;24428;-67
2022/10/30 02:26:39;;;;;;;9.77;4.10;;;;;;;12.09;100.00;96245.38;5027626;28;24435;-67
2022/10/30 02:29:06;;;;;;;10.52;3.78;;;;;;;12.13;100.00;96249.47;5030539;28;25091;-67
2022/10/30 02:31:32;;;;;;;7.70;3.80;;;;;;;12.13;100.00;96246.88;5029376;28;24459;-67
2022/10/30 02:33:59;;;;;;;5.60;3.53;;;;;;;12.13;100.00;96246.03;5028997;28;24436;-68
2022/10/30 02:36:25;;;;;;;10.25;3.97;;;;;;;12.01;100.00;96251.00;5024257;28;25001;-68
2022/10/30 02:38:54;;;;;;;14.27;4.50;;;;;;;11.93;100.00;96244.63;5023914;28;24447;-67
2022/10/30 02:41:20;;;;;;;17.90;4.00;;;;;;;11.97;100.00;96248.72;5028335;28;24436;-67
2022/10/30 02:43:47;;;;;;;11.20;3.80;;;;;;;11.92;100.00;96242.97;5026105;28;24970;-67
2022/10/30 02:46:13;;;;;;;11.65;4.07;;;;;;;11.92;100.00;96254.19;5015783;28;24443;-68
2022/10/30 02:48:40;;;;;;;8.05;3.35;;;;;;;11.99;100.00;96245.09;5026567;28;24455;-68
2022/10/30 02:51:06;;;;;;;12.63;3.55;;;;;;;11.91;100.00;96246.50;5027957;28;24485;-68
2022/10/30 02:53:33;;;;;;;14.10;3.78;;;;;;;11.76;100.00;96245.63;5015082;28;24439;-69
2022/10/30 02:56:05;;;;;;;14.75;3.95;;;;;;;11.77;100.00;96247.28;5030098;28;24435;-68
2022/10/30 02:58:31;;;;;;;8.02;4.15;;;;;;;11.80;100.00;96245.34;5027204;28;24432;-68
2022/10/30 03:00:58;;;;;;;15.05;4.10;;;;;;;11.81;100.00;96247.00;5028880;28;24440;-68
2022/10/30 03:03:24;;;;;;;14.50;4.85;;;;;;;11.80;100.00;96241.91;5017691;28;24427;-69
2022/10/30 03:05:51;;;;;;;12.70;4.10;;;;;;;11.82;100.00;96243.47;5021339;28;24446;-68
2022/10/30 03:08:17;;;;;;;12.43;3.85;;;;;;;11.81;100.00;96241.00;5030097;28;24992;-68
2022/10/30 03:10:43;;;;;;;14.07;4.55;;;;;;;11.79;100.00;96241.09;5030573;28;24440;-69
2022/10/30 03:13:11;;;;;;;16.65;4.18;;;;;;;11.82;100.00;96237.47;5028928;28;24455;-69
2022/10/30 03:15:38;;;;;;;10.35;3.95;;;;;;;11.84;100.00;96252.06;5024100;28;24444;-69
2022/10/30 03:18:04;;;;;;;13.70;3.80;;;;;;;11.88;100.00;96246.69;5021433;28;25090;-69
2022/10/30 03:20:31;;;;;;;11.73;3.50;;;;;;;11.86;100.00;96245.03;5029444;28;24427;-69
2022/10/30 03:22:57;;;;;;;7.15;3.20;;;;;;;11.76;100.00;96251.66;5030239;28;24435;-69
2022/10/30 03:25:24;;;;;;;13.60;3.47;;;;;;;11.60;100.00;96256.06;5028709;28;24438;-69
2022/10/30 03:27:50;;;;;;;6.35;3.03;;;;;;;11.51;100.00;96259.22;5021387;28;24439;-69
2022/10/30 03:30:18;;;;;;;6.30;2.70;;;;;;;11.47;100.00;96249.94;5027967;28;24454;-69
2022/10/30 03:32:45;;;;;;;10.18;3.10;;;;;;;11.43;100.00;96254.47;5031316;28;25080;-69
2022/10/30 03:35:12;;;;;;;8.18;3.05;;;;;;;11.47;100.00;96253.38;5027624;28;24439;-69
2022/10/30 03:37:38;;;;;;;9.18;3.22;;;;;;;11.46;100.00;96259.50;5024784;28;24447;-69
2022/10/30 03:40:06;;;;;;;8.35;3.75;;;;;;;11.43;100.00;96257.06;5029975;28;24455;-69
2022/10/30 03:42:32;;;;;;;9.65;3.45;;;;;;;11.26;100.00;96258.03;5031126;28;24992;-68
2022/10/30 03:44:59;;;;;;;11.13;3.60;;;;;;;11.25;100.00;96261.56;5019688;28;24443;-69
2022/10/30 03:47:27;;;;;;;16.02;4.05;;;;;;;11.25;100.00;96263.31;5031318;28;24439;-69
2022/10/30 03:49:53;;;;;;;7.63;3.67;;;;;;;11.27;100.00;96258.88;5026862;28;24447;-69
2022/10/30 03:52:20;;;;;;;8.07;3.70;;;;;;;11.28;100.00;96257.97;5030880;28;24448;-69
2022/10/30 03:54:46;;;;;;;12.50;3.53;;;;;;;11.31;100.00;96260.34;5028267;28;24509;-69
2022/10/30 03:57:13;;;;;;;10.02;3.80;;;;;;;11.34;100.00;96263.59;5025427;28;24431;-70
2022/10/30 03:59:39;;;;;;;10.82;3.70;;;;;;;11.41;100.00;96258.91;5028037;28;24447;-68
2022/10/30 04:02:06;;;;;;;10.80;3.42;;;;;;;11.40;100.00;96262.44;5025083;28;24428;-69
2022/10/30 04:04:33;;;;;;;9.20;3.70;;;;;;;11.42;100.00;96259.72;5028463;28;24786;-69
2022/10/30 04:07:00;;;;;;;10.98;3.47;;;;;;;11.41;100.00;96261.50;5025164;28;25260;-69
2022/10/30 04:09:26;;;;;;;8.07;3.58;;;;;;;11.27;100.00;96257.13;5028209;28;24435;-69
2022/10/30 04:11:53;;;;;;;8.93;3.17;;;;;;;11.28;100.00;96258.78;5025342;28;24459;-69
2022/10/30 04:14:19;;;;;;;7.45;3.30;;;;;;;11.27;100.00;96258.88;5028478;28;24442;-68
2022/10/30 04:16:46;;;;;;;10.63;3.87;;;;;;;11.21;100.00;96265.25;5024526;28;24443;-69
2022/10/30 04:19:12;;;;;;;11.25;4.15;;;;;;;11.05;100.00;96270.50;5027727;28;24969;-69
2022/10/30 04:21:42;;;;;;;14.40;4.05;;;;;;;11.11;100.00;96269.28;5025529;28;24428;-69
2022/10/30 04:24:09;;;;;;;9.02;3.83;;;;;;;11.11;100.00;96264.94;5028337;28;24428;-69
2022/10/30 04:26:35;;;;;;;8.10;3.60;;;;;;;11.14;100.00;96256.16;5025493;28;24440;-69
2022/10/30 04:29:02;;;;;;;10.20;3.77;;;;;;;11.06;100.00;96261.78;5027988;28;24997;-68
2022/10/30 04:31:28;;;;;;;7.47;3.00;;;;;;;11.02;100.00;96268.06;5025216;28;24447;-69
2022/10/30 04:33:55;;;;;;;7.38;3.38;;;;;;;11.01;100.00;96258.63;5027485;28;24440;-69
2022/10/30 04:36:28;;;;;;;11.40;3.97;;;;;;;11.11;100.00;96264.94;5019320;28;24440;-69
2022/10/30 04:38:56;;;;;;;13.10;4.13;;;;;;;11.08;100.00;96259.09;5027900;28;24458;-69
2022/10/30 04:41:23;;;;;;;8.00;3.60;;;;;;;11.09;100.00;96253.00;5025567;28;24436;-69
2022/10/30 04:43:49;;;;;;;12.48;3.97;;;;;;;11.13;100.00;96264.88;5028245;28;24428;-69
2022/10/30 04:46:16;;;;;;;10.52;3.60;;;;;;;11.04;100.00;96255.00;5025505;28;24432;-69
2022/10/30 04:48:42;;;;;;;9.30;3.55;;;;;;;10.95;100.00;96261.56;5027481;28;25041;-67
2022/10/30 04:51:10;;;;;;;7.78;2.95;;;;;;;10.86;100.00;96256.88;5026319;28;24432;-69
2022/10/30 04:53:37;;;;;;;9.77;3.38;;;;;;;10.94;100.00;96259.88;5025318;28;24506;-68
2022/10/30 04:56:06;;;;;;;14.73;3.67;;;;;;;10.81;100.00;96266.66;5015899;28;24443;-69
2022/10/30 04:58:33;;;;;;;11.63;3.88;;;;;;;10.66;100.00;96255.41;5025478;28;25047;-68
2022/10/30 05:01:01;;;;;;;10.10;3.80;;;;;;;10.68;100.00;96265.66;5023946;28;24423;-69
2022/10/30 05:03:27;;;;;;;7.13;3.22;;;;;;;10.74;100.00;96252.38;5028233;28;24431;-68
2022/10/30 05:05:58;;;;;;;3.63;2.00;;;;;;;10.69;100.00;96265.59;5024419;28;24443;-68
2022/10/30 05:08:24;;;;;;;5.45;2.67;;;;;;;10.68;100.00;96256.16;5023254;28;24436;-69
2022/10/30 05:10:51;;;;;;;9.43;3.50;;;;;;;10.62;100.00;96251.31;5024150;28;24428;-69
2022/10/30 05:13:19;;;;;;;9.75;3.20;;;;;;;10.61;100.00;96250.47;5028546;28;24452;-69
2022/10/30 05:15:45;;;;;;;11.77;3.45;;;;;;;10.66;100.00;96248.47;5025651;28;24431;-68
2022/10/30 05:18:12;;;;;;;10.80;3.38;;;;;;;10.71;100.00;96248.19;5027945;28;24436;-69
2022/10/30 05:20:38;;;;;;;9.23;3.47;;;;;;;10.65;100.00;96254.56;5025808;28;24432;-69
2022/10/30 05:23:05;;;;;;;12.73;3.50;;;;;;;10.61;100.00;96249.66;5025664;28;24439;-69
2022/10/30 05:25:32;;;;;;;12.20;3.85;;;;;;;10.68;100.00;96250.13;5023661;28;24428;-69
2022/10/30 05:27:59;;;;;;;9.20;3.70;;;;;;;10.67;100.00;96246.69;5019212;28;24440;-68
2022/10/30 05:30:28;;;;;;;12.27;3.90;;;;;;;10.61;100.00;96247.06;5024336;28;25005;-69
2022/10/30 05:32:58;;;;;;;12.65;3.70;;;;;;;10.64;100.00;96252.03;5027039;28;24509;-69
2022/10/30 05:35:24;;;;;;;13.27;3.53;;;;;;;10.61;100.00;96245.31;5024524;28;24467;-69
2022/10/30 05:37:51;;;;;;;10.55;3.30;;;;;;;10.57;100.00;96242.97;5026498;28;24436;-69
2022/10/30 05:40:17;;;;;;;13.88;4.30;;;;;;;10.41;100.00;96242.97;5020181;28;24432;-68
2022/10/30 05:42:45;;;;;;;10.25;3.72;;;;;;;10.45;100.00;96257.41;5027286;28;24424;-69
2022/10/30 05:45:11;;;;;;;13.02;3.70;;;;;;;10.25;100.00;96249.88;5021491;28;24428;-69
2022/10/30 05:47:39;;;;;;;9.27;3.33;;;;;;;10.31;100.00;96249.56;5028723;28;24798;-67
2022/10/30 05:50:07;;;;;;;9.82;3.35;;;;;;;10.34;100.00;96249.38;5022320;28;24433;-69
2022/10/30 05:52:34;;;;;;;10.27;2.92;;;;;;;10.27;100.00;96248.91;5021429;28;24460;-69
2022/10/30 05:55:00;;;;;;;11.63;3.25;;;;;;;10.15;100.00;96242.56;5013867;28;24447;-69
2022/10/30 05:57:28;;;;;;;8.20;2.95;;;;;;;10.15;100.00;96249.50;5027097;28;24986;-68
2022/10/30 05:59:54;;;;;;;11.70;3.13;;;;;;;10.12;100.00;96242.75;5028671;28;24436;-70
2022/10/30 06:02:21;;;;;;;8.70;3.55;;;;;;;10.12;100.00;96247.06;5028420;28;24428;-68
2022/10/30 06:04:49;;;;;;;6.30;2.90;;;;;;;10.11;100.00;96242.81;5024434;28;24459;-69
2022/10/30 06:07:15;;;;;;;6.53;3.00;;;;;;;10.12;100.00;96252.25;5020445;28;24443;-69
2022/10/30 06:09:42;;;;;;;8.13;3.63;;;;;;;10.15;100.00;96246.91;5026984;28;24432;-69
2022/10/30 06:12:08;;;;;;;10.18;3.35;;;;;;;10.18;100.00;96251.94;5027665;28;25004;-69
2022/10/30 06:14:35;;;;;;;9.30;3.70;;;;;;;10.24;100.00;96248.19;5024445;28;24440;-68
2022/10/30 06:17:01;;;;;;;7.28;3.30;;;;;;;10.28;100.00;96260.91;5026636;28;24428;-69
2022/10/30 06:19:28;;;;;;;14.93;3.38;;;;;;;10.06;100.00;96263.78;5028252;28;24447;-69
2022/10/30 06:21:56;;;;;;;13.45;3.80;;;;;;;10.06;100.00;96260.38;5026920;28;24473;-69
2022/10/30 06:24:22;;;;;;;12.50;3.50;;;;;;;10.16;100.00;96253.78;5024916;28;24992;-70
2022/10/30 06:26:49;;;;;;;7.07;3.05;;;;;;;10.13;100.00;96264.31;5027182;28;24972;-69
2022/10/30 06:29:16;;;;;;;16.33;3.35;;;;;;;10.15;100.00;96257.28;5024937;28;24881;-70
2022/10/30 06:31:43;;;;;;;7.28;3.47;;;;;;;9.98;100.00;96263.34;5027641;28;25326;-70
2022/10/30 06:34:09;;;;;;;8.32;3.20;;;;;;;10.00;100.00;96252.91;5025239;28;24452;-70
2022/10/30 06:36:36;;;;;;;7.60;3.25;;;;;;;10.15;100.00;96257.28;5027378;28;24443;-68
2022/10/30 06:39:04;;;;;;;8.20;2.92;;;;;;;10.16;100.00;96254.63;5023509;28;24436;-69
2022/10/30 06:41:30;;;;;;;9.23;3.10;;;;;;;10.16;100.00;96264.97;5030195;28;24428;-69
2022/10/30 06:43:57;;;;;;;8.25;2.70;;;;;;;10.27;100.00;96261.84;5028756;28;24997;-70
2022/10/30 06:46:23;;;;;;;7.93;3.05;;;;;;;10.17;100.00;96258.03;5031006;28;24442;-69
2022/10/30 06:48:50;;;;;;;4.85;2.70;;;;;;;10.17;100.00;96258.03;5028251;28;24459;-68
2022/10/30 06:51:16;;;;;;;12.55;3.50;;;;;;;10.20;100.00;96257.88;5031409;28;24432;-69
2022/10/30 06:53:43;;;;;;;6.95;2.90;;;;;;;10.32;100.00;96262.44;5029046;28;24456;-69
2022/10/30 06:56:11;;;;;;;5.60;2.85;;;;;;;10.48;100.00;96256.41;5023691;28;24424;-69
2022/10/30 06:58:38;;;;;;;6.63;3.15;;;;;;;10.27;100.00;96263.56;5028366;28;24443;-69
2022/10/30 07:01:06;;;;;;;8.05;3.10;;;;;;;10.34;100.00;96267.50;5028892;28;24440;-69
2022/10/30 07:03:32;;;;;;;13.00;3.58;;;;;;;10.22;100.00;96268.97;5025234;28;24428;-69
2022/10/30 07:05:59;;;;;;;10.30;3.53;;;;;;;10.18;100.00;96265.72;5031049;28;24436;-69
2022/10/30 07:08:25;;;;;;;11.15;3.33;;;;;;;10.42;100.00;96265.38;5028268;28;24436;-70
2022/10/30 07:10:52;;;;;;;8.73;3.40;;;;;;;10.41;100.00;96263.66;5031165;28;24424;-70
2022/10/30 07:13:20;;;;;;;15.55;3.60;;;;;;;10.33;100.00;96269.25;5028807;28;24460;-69
2022/10/30 07:15:46;;;;;;;16.63;3.78;;;;;;;10.41;100.00;96263.66;5031032;28;24435;-70
2022/10/30 07:18:13;;;;;;;10.02;3.65;;;;;;;10.48;100.00;96274.53;5022962;28;24437;-69
2022/10/30 07:20:39;;;;;;;7.90;3.05;;;;;;;10.58;100.00;96268.78;5032059;28;24474;-69
2022/10/30 07:23:06;;;;;;;7.75;3.22;;;;;;;10.74;100.00;96271.34;5023783;28;24450;-69
2022/10/30 07:25:32;;;;;;;7.03;3.40;;;;;;;11.06;100.00;96276.50;5024973;28;24428;-69
2022/10/30 07:27:59;;;;;;;14.32;3.83;;;;;;;11.21;100.00;96278.22;5021077;28;24443;-69
2022/10/30 07:30:27;;;;;;;6.43;3.75;;;;;;;11.46;100.00;96277.66;5021673;28;24442;-69
2022/10/30 07:32:58;;;;;;;5.75;3.67;;;;;;;11.64;100.00;96273.13;5027353;28;24460;-69
2022/10/30 07:35:25;;;;;;;9.80;3.83;;;;;;;11.82;100.00;96272.03;5019210;28;24435;-69
2022/10/30 07:37:52;;;;;;;11.95;3.70;;;;;;;12.00;100.00;96274.50;5022135;28;24439;-68
2022/10/30 07:40:19;;;;;;;14.60;3.80;;;;;;;12.29;100.00;96265.75;5018147;28;24528;-68
2022/10/30 07:42:45;;;;;;;11.43;3.70;;;;;;;12.47;100.00;96276.78;5024353;28;24440;-68
2022/10/30 07:45:12;;;;;;;11.37;3.77;;;;;;;12.68;100.00;96272.00;5028913;28;24805;-68
2022/10/30 07:47:40;;;;;;;11.27;3.58;;;;;;;12.89;100.00;96276.75;5026235;28;24439;-70
2022/10/30 07:50:08;;;;;;;9.73;3.47;;;;;;;13.17;100.00;96276.66;5029943;28;24450;-69
2022/10/30 07:52:34;;;;;;;8.73;3.92;;;;;;;13.34;100.00;96272.97;5025348;28;24443;-69
2022/10/30 07:55:01;;;;;;;16.42;3.97;;;;;;;13.48;100.00;96282.47;5020400;28;24440;-69
2022/10/30 07:57:31;;;;;;;10.88;3.78;;;;;;;13.67;100.00;96276.88;5021854;28;24436;-69
2022/10/30 07:59:57;;;;;;;16.25;4.10;;;;;;;13.79;100.00;96271.69;5021719;28;24439;-68
2022/10/30 08:02:24;;;;;;;10.55;3.78;;;;;;;13.96;100.00;96273.13;5022264;28;25192;-68
2022/10/30 08:04:51;;;;;;;10.10;3.65;;;;;;;14.02;100.00;96272.72;5022114;28;24442;-69
2022/10/30 08:07:19;;;;;;;8.23;3.40;;;;;;;14.11;100.00;96281.69;5026656;28;25036;-70
2022/10/30 08:09:46;;;;;;;8.88;3.38;;;;;;;14.16;100.00;96273.53;5022556;28;24482;-68
2022/10/30 08:12:13;;;;;;;10.80;3.28;;;;;;;14.01;100.00;96280.63;5023161;28;24499;-68
2022/10/30 08:14:39;;;;;;;14.70;3.63;;;;;;;13.87;100.00;96272.91;5022107;28;24459;-68
2022/10/30 08:17:06;;;;;;;16.30;5.50;;;;;;;13.85;100.00;96280.03;5027866;28;24438;-68
2022/10/30 08:19:33;;;;;;;11.80;5.30;;;;;;;13.75;100.00;96278.03;5030169;28;24524;-69
2022/10/30 08:22:01;;;;;;;9.63;4.88;;;;;;;13.89;100.00;96279.69;5028860;28;24477;-69
2022/10/30 08:24:27;;;;;;;8.07;4.13;;;;;;;14.23;100.00;96285.19;5021598;28;24462;-68
2022/10/30 08:26:54;;;;;;;11.10;4.30;;;;;;;14.29;100.00;96280.41;5024124;28;24436;-68
2022/10/30 08:29:20;;;;;;;13.77;4.20;;;;;;;14.11;100.00;96280.84;5028604;28;24487;-70
2022/10/30 08:31:48;;;;;;;9.48;4.10;;;;;;;14.15;100.00;96275.31;5030025;28;24428;-70
2022/10/30 08:34:14;;;;;;;10.20;4.30;;;;;;;14.56;100.00;96274.22;5024183;28;24455;-69
2022/10/30 08:36:41;;;;;;;10.30;3.95;;;;;;;14.83;100.00;96281.03;5013412;28;24444;-70
2022/10/30 08:39:09;;;;;;;14.60;4.20;;;;;;;14.82;100.00;96274.97;5026318;28;24444;-70
2022/10/30 08:41:35;;;;;;;12.88;4.95;;;;;;;14.99;100.00;96274.59;5027512;28;24442;-71
2022/10/30 08:44:02;;;;;;;11.88;4.30;;;;;;;15.13;100.00;96270.16;5029616;28;24439;-71
2022/10/30 08:46:28;;;;;;;9.60;4.10;;;;;;;15.05;100.00;96270.72;5029212;28;24442;-71
2022/10/30 08:48:55;;;;;;;10.10;4.32;;;;;;;15.19;100.00;96275.75;5029105;28;25012;-71
2022/10/30 08:51:21;;;;;;;12.18;4.57;;;;;;;15.49;100.00;96270.03;5026494;28;24447;-70
2022/10/30 08:53:48;;;;;;;6.35;4.20;;;;;;;15.47;100.00;96268.53;5029381;28;24462;-70
2022/10/30 08:56:16;;;;;;;13.18;4.25;;;;;;;15.53;100.00;96275.88;5027327;28;24424;-71
2022/10/30 08:58:43;;;;;;;10.27;3.60;;;;;;;15.40;100.00;96270.75;5028701;28;24997;-71
2022/10/30 09:01:10;;;;;;;15.13;3.97;;;;;;;15.31;100.00;96273.19;5029109;28;24460;-71
2022/10/30 09:03:37;;;;;;;15.15;3.83;;;;;;;15.36;100.00;96279.75;5027506;28;24424;-71
2022/10/30 09:06:04;;;;;;;9.10;3.00;;;;;;;15.48;100.00;96276.22;5022741;28;24509;-70
2022/10/30 09:08:31;;;;;;;6.70;3.03;;;;;;;15.77;100.00;96270.63;5023502;28;24439;-70
2022/10/30 09:10:58;;;;;;;10.15;3.10;;;;;;;16.13;100.00;96272.22;5027156;28;24427;-70
2022/10/30 09:13:26;;;;;;;17.85;3.35;;;;;;;16.45;100.00;96264.47;5029089;28;24451;-72
2022/10/30 09:15:53;;;;;;;9.30;3.20;;;;;;;16.59;100.00;96260.78;5028350;28;24432;-71
2022/10/30 09:18:20;;;;;;;7.68;2.85;;;;;;;16.62;100.00;96271.00;5028606;28;24446;-71
2022/10/30 09:20:49;;;;;;;9.73;3.10;;;;;;;16.59;100.00;96266.03;5028674;28;24455;-72
2022/10/30 09:23:15;;;;;;;9.93;3.35;;;;;;;16.52;100.00;96259.63;5027472;28;24486;-72
2022/10/30 09:25:41;;;;;;;9.50;3.10;;;;;;;16.70;100.00;96262.56;5025798;28;25154;-71
2022/10/30 09:28:08;;;;;;;7.88;2.80;;;;;;;16.91;100.00;96263.50;5028528;28;24444;-72
2022/10/30 09:30:36;;;;;;;8.98;2.97;;;;;;;16.92;100.00;96256.47;5028809;28;24957;-72
2022/10/30 09:33:02;;;;;;;12.13;2.90;;;;;;;17.04;100.00;96263.34;5022847;28;24438;-72
2022/10/30 09:35:29;;;;;;;8.38;3.33;;;;;;;17.15;98.81;96265.91;5028768;28;24991;-71
2022/10/30 09:37:56;;;;;;;9.45;3.67;;;;;;;17.12;98.52;96267.94;5019669;28;24828;-72
2022/10/30 09:40:33;;;;;;;7.70;3.10;;;;;;;17.05;99.53;96274.63;5028797;28;24983;-71
2022/10/30 09:43:08;;;;;;;10.18;3.50;;;;;;;17.22;99.70;96266.25;5023534;28;25007;-71
2022/10/30 09:46:08;;;;;;;8.55;3.53;;;;;;;17.56;98.80;96277.41;5029284;28;24430;-71
2022/10/30 09:49:04;;;;;;;6.60;3.05;;;;;;;17.87;97.24;96272.25;5021553;28;24433;-72
2022/10/30 09:52:00;;;;;;;7.63;2.97;;;;;;;18.06;94.61;96266.31;5021026;28;24432;-71
2022/10/30 09:54:37;;;;;;;8.55;2.88;;;;;;;18.16;94.86;96268.97;5022797;28;24449;-71
2022/10/30 09:57:12;;;;;;;9.45;3.40;;;;;;;18.26;94.32;96268.03;5027619;28;24439;-71
2022/10/30 09:59:47;;;;;;;7.03;3.00;;;;;;;18.36;94.09;96266.31;5028746;28;24451;-71
2022/10/30 10:02:32;;;;;;;7.30;3.05;;;;;;;18.37;94.23;96265.34;5025539;28;24829;-71
2022/10/30 10:05:03;;;;;;;6.18;2.90;;;;;;;18.46;93.48;96268.13;5028054;28;24424;-71
2022/10/30 10:07:36;;;;;;;8.85;3.20;;;;;;;18.57;92.97;96273.25;5025876;28;24427;-71
2022/10/30 10:10:07;;;;;;;10.07;4.17;;;;;;;18.73;93.84;96271.00;5028600;28;24497;-71
2022/10/30 10:12:39;;;;;;;6.97;3.40;;;;;;;18.69;94.73;96273.97;5025387;28;25011;-72
2022/10/30 10:15:11;;;;;;;14.48;3.80;;;;;;;18.70;92.84;96270.41;5028084;28;24455;-71
2022/10/30 10:17:43;;;;;;;8.35;2.95;;;;;;;18.77;92.84;96279.44;5029874;28;24466;-71
2022/10/30 10:20:16;;;;;;;11.43;3.35;;;;;;;18.87;91.01;96272.41;5029967;28;24966;-71
2022/10/30 10:22:49;;;;;;;7.00;2.63;;;;;;;19.00;91.46;96267.75;5028591;28;24431;-72
2022/10/30 10:25:18;;;;;;;7.30;2.92;;;;;;;19.18;89.06;96264.44;5024213;28;24980;-72
2022/10/30 10:28:02;;;;;;;10.75;3.55;;;;;;;19.35;90.64;96266.38;5022216;28;24434;-71
2022/10/30 10:30:34;;;;;;;9.83;2.73;;;;;;;19.56;89.81;96264.44;5021326;28;24427;-71
2022/10/30 10:33:33;;;;;;;8.35;2.55;;;;;;;19.65;85.37;96256.72;5030181;28;24428;-71
2022/10/30 10:36:13;;;;;;;8.63;2.80;;;;;;;19.83;86.62;96265.53;5025211;28;25000;-71
2022/10/30 10:38:54;;;;;;;9.75;2.65;;;;;;;19.91;87.03;96262.19;5027515;28;24572;-71
2022/10/30 10:41:31;;;;;;;6.97;2.72;;;;;;;19.94;88.06;96254.03;5026452;28;25032;-72
2022/10/30 10:44:13;;;;;;;5.75;2.70;;;;;;;20.00;88.63;96253.47;5031201;28;24972;-72
2022/10/30 10:46:59;;;;;;;7.72;2.47;;;;;;;20.04;83.82;96253.03;5029513;28;24447;-72
2022/10/30 10:49:38;;;;;;;3.58;2.05;;;;;;;20.10;81.84;96261.31;5022835;28;24443;-72
2022/10/30 10:52:09;;;;;;;5.22;2.45;;;;;;;20.15;83.27;96262.56;5030850;28;24443;-72
2022/10/30 10:54:42;;;;;;;6.13;2.05;;;;;;;20.18;80.68;96258.81;5028075;28;24448;-72
2022/10/30 10:57:20;;;;;;;8.05;2.30;;;;;;;20.29;81.61;96246.31;5030277;28;24447;-72
2022/10/30 10:59:52;;;;;;;7.20;2.20;;;;;;;20.30;77.29;96245.34;5028511;28;24439;-72
2022/10/30 11:02:30;;;;;;;5.55;2.22;;;;;;;20.42;76.70;96248.59;5023562;28;24442;-72
2022/10/30 11:05:04;;;;;;;13.60;2.50;;;;;;;20.47;75.53;96243.75;5027801;28;24431;-72
2022/10/30 11:07:33;;;;;;;5.90;2.20;;;;;;;20.47;76.98;96240.28;5030597;28;24432;-72
2022/10/30 11:10:00;;;;;;;5.00;2.28;;;;;;;20.48;78.04;96242.75;5027322;28;24440;-71
2022/10/30 11:12:29;;;;;;;9.38;1.92;;;;;;;20.45;77.84;96248.31;5031515;28;24428;-71
2022/10/30 11:14:56;;;;;;;6.53;2.00;;;;;;;20.46;75.05;96246.50;5030147;28;24456;-71
2022/10/30 11:17:27;;;;;;;5.13;1.98;;;;;;;20.48;78.05;96239.31;5027349;28;24801;-74
2022/10/30 11:19:58;;;;;;;5.32;2.15;;;;;;;20.48;79.97;96241.94;5029066;28;24447;-73
2022/10/30 11:22:31;;;;;;;5.28;2.13;;;;;;;20.45;81.92;96237.78;5027868;28;24439;-73
2022/10/30 11:25:18;;;;;;;5.53;2.25;;;;;;;20.50;85.18;96243.47;5030191;28;24440;-73
2022/10/30 11:27:47;;;;;;;3.87;1.97;;;;;;;20.47;82.91;96235.84;5027071;28;24987;-71
2022/10/30 11:30:17;;;;;;;4.67;2.30;;;;;;;20.42;82.95;96238.06;5030201;28;24466;-72